Time;durP1;ratioP1;P1;durP2;ratioP2;P2;SDS_P1;SDS_P2;PMS_P1;PMS_P2;Temp;Humidity;BMP_temperature;BMP_pressure;BME280_temperature;BME280_humidity;BME280_pressure;Samples;Min_cycle;Max_cycle;Signal;HPM_P1;HPM_P2
2022/10/27 00:00:55;;;;;;;9.65;3.05;;;11.90;99.90;;;;;;5065139;28;19963;-70
2022/10/27 00:03:21;;;;;;;;;;;12.00;99.90;;;;;;5081189;28;20569;-70
2022/10/27 00:05:47;;;;;;;9.75;3.70;;;12.00;99.90;;;;;;5080687;28;19962;-70
2022/10/27 00:08:15;;;;;;;8.63;3.50;;;12.00;99.90;;;;;;5079960;28;20040;-70
2022/10/27 00:10:42;;;;;;;10.02;3.53;;;12.00;99.90;;;;;;5079686;28;20060;-68
2022/10/27 00:13:08;;;;;;;9.63;3.55;;;12.00;99.90;;;;;;5079814;28;20032;-69
2022/10/27 00:15:33;;;;;;;;;;;12.10;99.90;;;;;;5081820;28;20059;-70
2022/10/27 00:17:59;;;;;;;14.95;4.03;;;12.10;99.90;;;;;;5071848;28;19926;-69
2022/10/27 00:20:25;;;;;;;;;;;12.00;99.90;;;;;;5067721;28;20032;-69
2022/10/27 00:22:50;;;;;;;7.72;4.13;;;12.00;99.90;;;;;;5066152;28;20264;-70
2022/10/27 00:25:16;;;;;;;;;;;12.00;99.90;;;;;;5067152;28;20119;-69
2022/10/27 00:27:42;;;;;;;11.18;4.80;;;12.00;99.90;;;;;;5065988;28;19924;-69
2022/10/27 00:30:09;;;;;;;9.32;4.72;;;12.10;99.90;;;;;;5067568;28;20028;-69
2022/10/27 00:32:34;;;;;;;12.13;4.95;;;12.00;99.90;;;;;;5065675;28;20474;-69
2022/10/27 00:35:00;;;;;;;;;;;12.00;99.90;;;;;;5068176;28;20036;-69
2022/10/27 00:37:27;;;;;;;9.70;5.05;;;12.10;99.90;;;;;;5066930;28;19916;-69
2022/10/27 00:39:53;;;;;;;18.30;5.47;;;12.10;99.90;;;;;;5067012;28;20040;-70
2022/10/27 00:42:18;;;;;;;;;;;12.10;99.90;;;;;;5067289;28;20098;-70
2022/10/27 00:44:45;;;;;;;13.30;5.75;;;12.00;99.90;;;;;;5067503;28;20047;-70
2022/10/27 00:47:21;;;;;;;16.58;6.80;;;12.00;99.90;;;;;;5066368;28;20062;-70
2022/10/27 00:50:01;;;;;;;14.47;6.67;;;12.00;99.90;;;;;;5065244;28;20037;-70
2022/10/27 00:52:32;;;;;;;12.00;5.90;;;12.00;99.90;;;;;;5065847;28;20286;-69
2022/10/27 00:55:12;;;;;;;17.55;5.93;;;12.00;99.90;;;;;;5067011;28;20032;-69
2022/10/27 00:57:39;;;;;;;7.80;5.10;;;11.90;99.90;;;;;;5065221;28;20064;-69
2022/10/27 01:00:06;;;;;;;15.88;5.63;;;11.90;99.90;;;;;;5067056;28;20454;-70
2022/10/27 01:02:33;;;;;;;12.40;7.00;;;11.80;99.90;;;;;;5064680;28;20040;-70
2022/10/27 01:05:01;;;;;;;10.55;5.78;;;11.80;99.90;;;;;;5067045;28;20036;-70
2022/10/27 01:07:28;;;;;;;12.43;5.93;;;11.80;99.90;;;;;;5066320;28;20039;-69
2022/10/27 01:09:54;;;;;;;14.43;5.90;;;11.80;99.90;;;;;;5066412;28;20049;-70
2022/10/27 01:12:20;;;;;;;14.27;5.93;;;11.80;99.90;;;;;;5065145;28;20079;-70
2022/10/27 01:14:46;;;;;;;;;;;11.70;99.90;;;;;;5066882;28;20045;-69
2022/10/27 01:17:21;;;;;;;12.93;5.43;;;11.70;99.90;;;;;;5066001;28;19916;-69
2022/10/27 01:20:05;;;;;;;13.88;5.55;;;11.70;99.90;;;;;;5064458;28;20041;-69
2022/10/27 01:22:43;;;;;;;14.93;5.82;;;11.70;99.90;;;;;;5065024;28;20044;-69
2022/10/27 01:25:33;;;;;;;20.73;5.93;;;11.70;99.90;;;;;;5065172;28;20037;-70
2022/10/27 01:28:12;;;;;;;11.80;5.90;;;11.70;99.90;;;;;;5065470;28;20040;-69
2022/10/27 01:31:11;;;;;;;13.95;5.80;;;11.70;99.90;;;;;;5063106;28;20032;-71
2022/10/27 01:33:50;;;;;;;15.48;5.82;;;11.70;99.90;;;;;;5031808;28;20053;-70
2022/10/27 01:36:53;;;;;;;9.20;4.63;;;11.60;99.90;;;;;;5059028;28;20050;-70
2022/10/27 01:39:29;;;;;;;11.00;4.50;;;11.60;99.90;;;;;;5060309;28;20082;-70
2022/10/27 01:42:07;;;;;;;15.70;5.20;;;11.60;99.90;;;;;;5063307;28;20048;-70
2022/10/27 01:44:40;;;;;;;10.13;4.68;;;11.60;99.90;;;;;;5065731;28;20450;-70
2022/10/27 01:47:08;;;;;;;13.10;4.15;;;11.60;99.90;;;;;;5061228;28;20515;-70
2022/10/27 01:49:35;;;;;;;8.32;3.80;;;11.50;99.90;;;;;;5064180;28;20062;-69
2022/10/27 01:52:44;;;;;;;9.70;3.17;;;11.50;99.90;;;;;;5063236;28;20090;-69
2022/10/27 01:55:17;;;;;;;15.23;3.22;;;11.50;99.90;;;;;;5064462;28;20128;-70
2022/10/27 01:58:01;;;;;;;11.25;2.90;;;11.50;99.90;;;;;;5060009;28;20040;-71
2022/10/27 02:00:32;;;;;;;16.02;3.22;;;11.60;99.90;;;;;;5063198;28;20116;-70
2022/10/27 02:03:11;;;;;;;11.20;2.88;;;11.60;99.90;;;;;;5063915;28;20151;-70
2022/10/27 02:05:58;;;;;;;20.40;2.80;;;11.60;99.90;;;;;;5065559;28;20083;-69
2022/10/27 02:08:32;;;;;;;8.30;2.33;;;11.60;99.90;;;;;;5059743;28;20066;-70
2022/10/27 02:11:06;;;;;;;38.88;4.05;;;11.60;99.90;;;;;;5064463;28;20623;-69
2022/10/27 02:13:35;;;;;;;8.20;2.13;;;11.60;99.90;;;;;;5065301;28;20036;-70
2022/10/27 02:16:05;;;;;;;6.93;3.00;;;11.60;99.90;;;;;;5064472;28;20435;-70
2022/10/27 02:18:41;;;;;;;7.72;3.42;;;11.50;99.90;;;;;;5064845;28;20079;-70
2022/10/27 02:21:09;;;;;;;12.85;3.80;;;11.40;99.90;;;;;;5063132;28;20039;-70
2022/10/27 02:23:35;;;;;;;9.85;3.58;;;11.30;99.90;;;;;;5063859;28;20048;-70
2022/10/27 02:26:04;;;;;;;8.60;4.00;;;11.20;99.90;;;;;;5064778;28;20050;-69
2022/10/27 02:28:54;;;;;;;11.90;3.95;;;11.20;99.90;;;;;;5064929;28;20090;-69
2022/10/27 02:31:25;;;;;;;9.73;3.47;;;11.10;99.90;;;;;;5062276;28;20090;-70
2022/10/27 02:33:52;;;;;;;9.55;3.53;;;11.10;99.90;;;;;;5064546;28;20488;-69
2022/10/27 02:36:17;;;;;;;13.73;3.63;;;11.00;99.90;;;;;;5064981;28;20044;-69
2022/10/27 02:38:43;;;;;;;;;;;10.90;99.90;;;;;;5062338;28;20048;-70
2022/10/27 02:41:09;;;;;;;16.00;3.40;;;11.00;99.90;;;;;;5062918;28;19923;-70
2022/10/27 02:43:34;;;;;;;;;;;10.90;99.90;;;;;;5064921;28;20450;-70
2022/10/27 02:46:00;;;;;;;14.88;3.60;;;10.90;99.90;;;;;;5064513;28;19920;-71
2022/10/27 02:48:25;;;;;;;;;;;10.90;99.90;;;;;;5063923;28;20559;-70
2022/10/27 02:50:51;;;;;;;12.57;3.70;;;10.80;99.90;;;;;;5064725;28;19916;-70
2022/10/27 02:53:17;;;;;;;;;;;10.80;99.90;;;;;;5063895;28;20047;-69
2022/10/27 02:55:42;;;;;;;9.32;3.95;;;10.70;99.90;;;;;;5064345;28;20399;-70
2022/10/27 02:58:08;;;;;;;;;;;10.70;99.90;;;;;;5064116;28;20043;-69
2022/10/27 03:00:33;;;;;;;9.40;3.05;;;10.70;99.90;;;;;;5063120;28;19916;-69
2022/10/27 03:02:59;;;;;;;;;;;10.70;99.90;;;;;;5064511;28;20562;-70
2022/10/27 03:05:24;;;;;;;10.30;2.20;;;10.60;99.90;;;;;;5064440;28;19958;-70
2022/10/27 03:07:50;;;;;;;;;;;10.70;99.90;;;;;;5065068;28;20040;-69
2022/10/27 03:10:16;;;;;;;8.48;3.95;;;10.70;99.90;;;;;;5064552;28;20342;-69
2022/10/27 03:12:44;;;;;;;;;;;10.70;99.90;;;;;;5063614;28;20194;-69
2022/10/27 03:15:10;;;;;;;7.90;3.33;;;10.60;99.90;;;;;;5064757;28;20634;-69
2022/10/27 03:17:35;;;;;;;;;;;10.50;99.90;;;;;;5063932;28;20055;-69
2022/10/27 03:20:01;;;;;;;16.30;2.72;;;10.50;99.90;;;;;;5064924;28;20011;-70
2022/10/27 03:22:26;;;;;;;;;;;10.50;99.90;;;;;;5063083;28;20040;-70
2022/10/27 03:24:52;;;;;;;13.05;2.60;;;10.50;99.90;;;;;;5064371;28;19920;-69
2022/10/27 03:27:17;;;;;;;;;;;10.50;99.90;;;;;;5063561;28;20041;-71
2022/10/27 03:29:43;;;;;;;15.93;2.70;;;10.50;99.90;;;;;;5064086;28;19923;-69
2022/10/27 03:32:08;;;;;;;;;;;10.50;99.90;;;;;;5063134;28;20029;-70
2022/10/27 03:34:34;;;;;;;8.20;2.38;;;10.40;99.90;;;;;;5064083;28;19916;-69
2022/10/27 03:37:00;;;;;;;;;;;10.40;99.90;;;;;;5064930;28;20101;-69
2022/10/27 03:39:25;;;;;;;6.32;2.50;;;10.40;99.90;;;;;;5062725;28;19923;-70
2022/10/27 03:41:51;;;;;;;;;;;10.30;99.90;;;;;;5063719;28;20051;-70
2022/10/27 03:44:16;;;;;;;11.82;2.97;;;10.30;99.90;;;;;;5064726;28;19923;-71
2022/10/27 03:46:42;;;;;;;;;;;10.30;99.90;;;;;;5065022;28;20071;-71
2022/10/27 03:49:07;;;;;;;9.00;3.35;;;10.30;99.90;;;;;;5064308;28;19916;-69
2022/10/27 03:51:33;;;;;;;;;;;10.40;99.90;;;;;;5064654;28;20127;-70
2022/10/27 03:53:59;;;;;;;15.63;2.30;;;10.40;99.90;;;;;;5066180;28;20547;-69
2022/10/27 03:56:24;;;;;;;;;;;10.40;99.90;;;;;;5065015;28;20049;-68
2022/10/27 03:58:50;;;;;;;8.52;2.42;;;10.40;99.90;;;;;;5065263;28;19925;-69
2022/10/27 04:01:15;;;;;;;;;;;10.40;99.90;;;;;;5066388;28;20041;-70
2022/10/27 04:03:41;;;;;;;12.57;3.00;;;10.50;99.90;;;;;;5066202;28;19928;-70
2022/10/27 04:06:06;;;;;;;;;;;10.50;99.90;;;;;;5067516;28;20043;-70
2022/10/27 04:08:32;;;;;;;6.28;2.63;;;10.50;99.90;;;;;;5067333;28;19916;-70
2022/10/27 04:10:58;;;;;;;;;;;10.50;99.90;;;;;;5065824;28;20127;-69
2022/10/27 04:13:23;;;;;;;6.80;2.35;;;10.40;99.90;;;;;;5066226;28;19916;-71
2022/10/27 04:15:49;;;;;;;;;;;10.40;99.90;;;;;;5067299;28;20040;-70
2022/10/27 04:18:14;;;;;;;10.73;2.20;;;10.40;99.90;;;;;;5067315;28;20050;-69
2022/10/27 04:20:40;;;;;;;;;;;10.50;99.90;;;;;;5067868;28;20463;-69
2022/10/27 04:23:05;;;;;;;3.55;1.58;;;10.60;99.90;;;;;;5065422;28;20575;-71
2022/10/27 04:25:31;;;;;;;;;;;10.70;99.90;;;;;;5067753;28;20427;-70
2022/10/27 04:28:04;;;;;;;14.27;2.17;;;10.70;99.90;;;;;;5066091;28;19920;-69
2022/10/27 04:30:30;;;;;;;8.40;2.38;;;10.60;99.90;;;;;;5066447;28;20045;-70
2022/10/27 04:32:55;;;;;;;;;;;10.60;99.90;;;;;;5065334;28;20557;-70
2022/10/27 04:35:21;;;;;;;4.53;2.10;;;10.60;99.90;;;;;;5064998;28;19920;-69
2022/10/27 04:37:46;;;;;;;;;;;10.50;99.90;;;;;;5067120;28;20115;-70
2022/10/27 04:40:12;;;;;;;12.75;2.20;;;10.40;99.90;;;;;;5065022;28;19966;-69
2022/10/27 04:42:42;;;;;;;;;;;10.30;99.90;;;;;;5066870;28;20075;-69
2022/10/27 04:45:08;;;;;;;4.72;1.92;;;10.30;99.90;;;;;;5066574;28;19979;-69
2022/10/27 04:47:34;;;;;;;;;;;10.20;99.90;;;;;;5067403;28;20040;-69
2022/10/27 04:49:59;;;;;;;11.80;1.90;;;10.20;99.90;;;;;;5065462;28;19916;-68
2022/10/27 04:52:25;;;;;;;;;;;10.20;99.90;;;;;;5065895;28;20072;-69
2022/10/27 04:54:50;;;;;;;6.78;1.48;;;10.20;99.90;;;;;;5065597;28;20451;-70
2022/10/27 04:57:17;;;;;;;;;;;10.20;99.90;;;;;;5066368;28;20396;-70
2022/10/27 04:59:43;;;;;;;12.63;2.10;;;10.20;99.90;;;;;;5067509;28;19920;-69
2022/10/27 05:02:08;;;;;;;;;;;10.20;99.90;;;;;;5062554;28;20179;-70
2022/10/27 05:04:34;;;;;;;2.33;1.33;;;10.20;99.90;;;;;;5067098;28;19920;-69
2022/10/27 05:06:59;;;;;;;;;;;10.10;99.90;;;;;;5066359;28;20045;-70
2022/10/27 05:09:25;;;;;;;6.00;1.85;;;10.10;99.90;;;;;;5067547;28;19920;-70
2022/10/27 05:11:50;;;;;;;;;;;10.00;99.90;;;;;;5066503;28;20468;-70
2022/10/27 05:14:16;;;;;;;3.38;1.50;;;10.10;99.90;;;;;;5066602;28;19920;-70
2022/10/27 05:16:41;;;;;;;;;;;10.10;99.90;;;;;;5067282;28;20583;-69
2022/10/27 05:19:07;;;;;;;9.68;1.55;;;10.10;99.90;;;;;;5065976;28;19921;-69
2022/10/27 05:21:32;;;;;;;;;;;10.10;99.90;;;;;;5066210;28;20539;-69
2022/10/27 05:23:58;;;;;;;8.60;1.40;;;10.00;99.90;;;;;;5065587;28;19973;-69
2022/10/27 05:26:24;;;;;;;;;;;10.10;99.90;;;;;;5064850;28;20466;-67
2022/10/27 05:28:49;;;;;;;3.53;1.45;;;10.10;99.90;;;;;;5066039;28;20407;-70
2022/10/27 05:31:15;;;;;;;;;;;10.10;99.90;;;;;;5061242;28;20032;-69
2022/10/27 05:33:40;;;;;;;8.82;1.65;;;10.10;99.90;;;;;;5065736;28;19974;-69
2022/10/27 05:36:07;;;;;;;14.05;2.85;;;10.00;99.90;;;;;;5065059;28;20102;-70
2022/10/27 05:38:33;;;;;;;13.80;1.63;;;10.10;99.90;;;;;;5061653;28;20714;-68
2022/10/27 05:40:58;;;;;;;;;;;10.10;99.90;;;;;;5060586;28;20037;-67
2022/10/27 05:43:24;;;;;;;8.57;1.60;;;10.10;99.90;;;;;;5064678;28;19920;-67
2022/10/27 05:45:50;;;;;;;;;;;10.10;99.90;;;;;;5060654;28;20048;-67
2022/10/27 05:48:16;;;;;;;5.93;1.83;;;10.10;99.90;;;;;;5067349;28;20011;-68
2022/10/27 05:50:42;;;;;;;;;;;10.10;99.90;;;;;;5067170;28;20116;-67
2022/10/27 05:53:07;;;;;;;6.32;1.63;;;10.00;99.90;;;;;;5063366;28;20018;-68
2022/10/27 05:55:33;;;;;;;;;;;10.00;99.90;;;;;;5058881;28;20033;-67
2022/10/27 05:58:04;;;;;;;13.93;2.00;;;10.00;99.90;;;;;;5063049;28;19931;-69
2022/10/27 06:00:33;;;;;;;9.52;2.03;;;10.00;99.90;;;;;;5064290;28;20056;-67
2022/10/27 06:03:00;;;;;;;6.30;1.73;;;10.00;99.90;;;;;;5064984;28;20036;-68
2022/10/27 06:05:28;;;;;;;3.30;1.45;;;10.00;99.90;;;;;;5064946;28;20052;-67
2022/10/27 06:07:54;;;;;;;10.80;1.88;;;10.00;99.90;;;;;;5063033;28;20117;-68
2022/10/27 06:10:20;;;;;;;5.35;1.92;;;9.90;99.90;;;;;;5065895;28;20487;-67
2022/10/27 06:12:45;;;;;;;;;;;10.00;99.90;;;;;;5064953;28;20040;-67
2022/10/27 06:15:11;;;;;;;6.45;1.30;;;10.00;99.90;;;;;;5064904;28;20435;-67
2022/10/27 06:17:37;;;;;;;;;;;9.90;99.90;;;;;;5065547;28;20040;-69
2022/10/27 06:20:03;;;;;;;6.60;1.83;;;9.90;99.90;;;;;;5059746;28;19916;-67
2022/10/27 06:22:29;;;;;;;8.85;2.83;;;10.00;99.90;;;;;;5064936;28;20044;-69
2022/10/27 06:24:54;;;;;;;;;;;9.90;99.90;;;;;;5059469;28;20602;-68
2022/10/27 06:27:20;;;;;;;8.88;2.15;;;10.00;99.90;;;;;;5078177;28;19924;-69
2022/10/27 06:29:45;;;;;;;;;;;10.00;99.90;;;;;;5064490;28;20066;-68
2022/10/27 06:32:11;;;;;;;16.10;1.73;;;10.10;99.90;;;;;;5062644;28;19927;-69
2022/10/27 06:34:36;;;;;;;;;;;10.00;99.90;;;;;;5066691;28;20064;-69
2022/10/27 06:37:02;;;;;;;4.35;1.40;;;10.10;99.90;;;;;;5067511;28;20323;-68
2022/10/27 06:39:28;;;;;;;;;;;10.10;99.90;;;;;;5066325;28;20557;-69
2022/10/27 06:41:55;;;;;;;7.38;2.45;;;10.20;99.90;;;;;;5064926;28;19924;-68
2022/10/27 06:44:21;;;;;;;15.15;2.63;;;10.20;99.90;;;;;;5067022;28;20040;-69
2022/10/27 06:46:46;;;;;;;;;;;10.20;99.90;;;;;;5066215;28;20044;-69
2022/10/27 06:49:12;;;;;;;8.43;2.53;;;10.30;99.90;;;;;;5065118;28;19968;-69
2022/10/27 06:51:37;;;;;;;;;;;10.30;99.90;;;;;;5065272;28;20463;-67
2022/10/27 06:54:03;;;;;;;4.22;1.98;;;10.30;99.90;;;;;;5065846;28;19927;-69
2022/10/27 06:56:29;;;;;;;;;;;10.40;99.90;;;;;;5066396;28;20504;-68
2022/10/27 06:58:54;;;;;;;10.57;2.33;;;10.40;99.90;;;;;;5066212;28;20288;-68
2022/10/27 07:01:20;;;;;;;;;;;10.50;99.90;;;;;;5062400;28;20085;-68
2022/10/27 07:03:45;;;;;;;7.18;2.17;;;10.50;99.90;;;;;;5065336;28;20011;-69
2022/10/27 07:06:11;;;;;;;;;;;10.60;99.90;;;;;;5065877;28;20040;-68
2022/10/27 07:08:37;;;;;;;12.52;2.45;;;10.70;99.90;;;;;;5065707;28;19920;-67
2022/10/27 07:11:02;;;;;;;;;;;10.90;99.90;;;;;;5063057;28;20036;-67
2022/10/27 07:13:28;;;;;;;8.68;3.05;;;11.00;99.90;;;;;;5064872;28;19921;-68
2022/10/27 07:15:53;;;;;;;;;;;11.30;99.90;;;;;;5067417;28;20052;-68
2022/10/27 07:18:19;;;;;;;14.27;2.03;;;11.40;99.90;;;;;;5066437;28;19917;-69
2022/10/27 07:20:45;;;;;;;;;;;11.40;99.90;;;;;;5066255;28;20045;-67
2022/10/27 07:23:11;;;;;;;6.75;1.80;;;11.50;99.90;;;;;;5064154;28;19979;-68
2022/10/27 07:25:37;;;;;;;7.75;2.50;;;11.50;99.90;;;;;;5064607;28;20123;-68
2022/10/27 07:28:05;;;;;;;14.68;3.92;;;11.60;99.90;;;;;;5058815;28;20036;-69
2022/10/27 07:30:38;;;;;;;18.10;3.50;;;11.70;99.90;;;;;;5069109;28;20408;-68
2022/10/27 07:33:04;;;;;;;9.05;3.20;;;11.70;99.90;;;;;;5055992;28;20083;-68
2022/10/27 07:35:30;;;;;;;;;;;11.80;99.90;;;;;;5076613;28;20488;-69
2022/10/27 07:37:56;;;;;;;14.90;2.80;;;11.90;99.90;;;;;;5070055;28;19916;-69
2022/10/27 07:40:22;;;;;;;;;;;11.90;99.90;;;;;;5069220;28;20442;-68
2022/10/27 07:42:55;;;;;;;6.85;2.22;;;12.00;99.90;;;;;;5068472;28;19953;-68
2022/10/27 07:45:22;;;;;;;3.75;1.15;;;12.10;99.90;;;;;;5069469;28;20106;-68
2022/10/27 07:47:50;;;;;;;7.45;2.20;;;12.40;99.90;;;;;;5068856;28;20040;-69
2022/10/27 07:50:18;;;;;;;5.72;1.70;;;12.60;99.90;;;;;;5062918;28;20504;-68
2022/10/27 07:52:48;;;;;;;8.98;2.53;;;12.70;99.90;;;;;;5067803;28;20040;-68
2022/10/27 07:55:15;;;;;;;10.02;3.55;;;12.80;99.90;;;;;;5067761;28;20112;-68
2022/10/27 07:57:42;;;;;;;5.47;1.40;;;12.90;99.90;;;;;;5070306;28;20040;-68
2022/10/27 08:00:11;;;;;;;10.00;1.50;;;13.10;99.90;;;;;;5068329;28;20483;-68
2022/10/27 08:02:36;;;;;;;6.13;1.30;;;13.30;99.90;;;;;;5066800;28;20048;-69
2022/10/27 08:05:02;;;;;;;;;;;13.40;99.90;;;;;;5069007;28;20059;-68
2022/10/27 08:07:28;;;;;;;7.97;1.35;;;13.50;99.90;;;;;;5068330;28;19925;-68
2022/10/27 08:09:54;;;;;;;3.95;1.20;;;13.60;99.90;;;;;;5068498;28;20047;-69
2022/10/27 08:12:19;;;;;;;;;;;13.70;99.90;;;;;;5068596;28;20123;-68
2022/10/27 08:14:45;;;;;;;6.28;1.90;;;13.90;99.90;;;;;;5068709;28;19927;-68
2022/10/27 08:17:12;;;;;;;;;;;14.00;99.90;;;;;;5067736;28;20047;-69
2022/10/27 08:19:38;;;;;;;9.35;1.67;;;14.00;99.90;;;;;;5069308;28;20008;-69
2022/10/27 08:22:04;;;;;;;5.78;1.00;;;14.20;99.90;;;;;;5067380;28;20041;-68
2022/10/27 08:24:29;;;;;;;;;;;14.20;99.90;;;;;;5068159;28;20091;-68
2022/10/27 08:26:55;;;;;;;6.60;1.25;;;14.20;99.90;;;;;;5067714;28;20451;-68
2022/10/27 08:29:21;;;;;;;;;;;14.30;99.90;;;;;;5064232;28;20045;-68
2022/10/27 08:31:47;;;;;;;9.35;1.20;;;14.20;99.90;;;;;;5065321;28;19943;-68
2022/10/27 08:34:12;;;;;;;;;;;14.30;99.90;;;;;;5068716;28;20036;-68
2022/10/27 08:36:38;;;;;;;8.40;1.58;;;14.30;99.90;;;;;;5068922;28;20291;-68
2022/10/27 08:39:04;;;;;;;;;;;14.40;99.90;;;;;;5067800;28;20068;-68
2022/10/27 08:41:42;;;;;;;6.45;1.17;;;14.40;99.90;;;;;;5067169;28;19917;-68
2022/10/27 08:44:19;;;;;;;3.97;1.30;;;14.60;99.90;;;;;;5067823;28;20056;-69
2022/10/27 08:46:54;;;;;;;7.32;1.38;;;14.70;99.90;;;;;;5068591;28;20044;-69
2022/10/27 08:49:27;;;;;;;5.10;1.55;;;14.80;99.90;;;;;;5066946;28;20657;-69
2022/10/27 08:51:58;;;;;;;4.22;1.13;;;14.90;99.90;;;;;;5082593;28;20037;-68
2022/10/27 08:54:26;;;;;;;6.32;1.13;;;15.10;99.90;;;;;;5069168;28;20052;-69
2022/10/27 08:56:56;;;;;;;7.85;1.73;;;15.30;99.90;;;;;;5061336;28;20044;-68
2022/10/27 08:59:24;;;;;;;7.10;0.90;;;15.40;99.90;;;;;;5066604;28;20055;-68
2022/10/27 09:02:12;;;;;;;4.88;0.98;;;15.50;99.90;;;;;;5065081;28;20071;-68
2022/10/27 09:05:10;;;;;;;5.63;1.45;;;15.70;99.90;;;;;;5067548;28;20036;-69
2022/10/27 09:07:44;;;;;;;7.57;1.13;;;15.80;99.90;;;;;;5054495;28;20514;-69
2022/10/27 09:10:36;;;;;;;3.42;1.25;;;15.90;99.90;;;;;;5066998;28;20089;-69
2022/10/27 09:13:39;;;;;;;5.22;1.23;;;16.00;99.90;;;;;;5068066;28;20064;-69
2022/10/27 09:16:10;;;;;;;4.13;1.33;;;16.10;99.90;;;;;;5066817;28;20032;-69
2022/10/27 09:18:47;;;;;;;5.82;1.75;;;16.10;99.90;;;;;;5066932;28;20040;-69
2022/10/27 09:21:19;;;;;;;2.53;1.10;;;16.30;99.90;;;;;;5066578;28;20058;-69
2022/10/27 09:24:05;;;;;;;6.88;2.00;;;16.40;99.90;;;;;;5066045;28;20543;-67
2022/10/27 09:26:33;;;;;;;6.38;1.40;;;16.40;99.90;;;;;;5063892;28;20063;-69
2022/10/27 09:29:13;;;;;;;8.40;1.25;;;16.50;99.90;;;;;;5066940;28;20048;-68
2022/10/27 09:31:46;;;;;;;8.48;1.52;;;16.50;99.90;;;;;;5063967;28;20078;-69
2022/10/27 09:34:17;;;;;;;3.80;1.52;;;16.60;99.90;;;;;;5063143;28;20097;-67
2022/10/27 09:36:42;;;;;;;3.70;1.15;;;16.70;99.90;;;;;;5063128;28;20159;-69
2022/10/27 09:39:08;;;;;;;;;;;16.70;99.90;;;;;;5067609;28;20123;-68
2022/10/27 09:41:35;;;;;;;3.42;1.00;;;16.70;99.90;;;;;;5065571;28;20675;-68
2022/10/27 09:44:02;;;;;;;6.88;1.48;;;16.90;99.90;;;;;;5063825;28;20028;-68
2022/10/27 09:46:29;;;;;;;7.75;1.20;;;17.00;99.90;;;;;;5067381;28;20045;-69
2022/10/27 09:49:04;;;;;;;2.88;0.80;;;17.10;99.90;;;;;;5067064;28;20051;-68
2022/10/27 09:52:02;;;;;;;8.50;0.93;;;17.20;99.90;;;;;;5064399;28;20043;-68
2022/10/27 09:54:33;;;;;;;8.15;0.88;;;17.30;99.90;;;;;;5062550;28;20523;-68
2022/10/27 09:57:18;;;;;;;6.22;1.08;;;17.30;99.90;;;;;;5066104;28;20120;-67
2022/10/27 10:00:00;;;;;;;4.22;1.15;;;17.30;99.90;;;;;;5067420;28;20036;-66
2022/10/27 10:02:32;;;;;;;1.45;0.80;;;17.40;99.90;;;;;;5067525;28;20048;-65
2022/10/27 10:04:59;;;;;;;3.17;0.90;;;17.50;99.90;;;;;;5072652;28;20399;-64
2022/10/27 10:07:35;;;;;;;5.40;1.15;;;17.60;99.90;;;;;;5067317;28;20076;-69
2022/10/27 10:10:06;;;;;;;4.43;1.20;;;17.60;99.90;;;;;;5073069;28;20040;-67
2022/10/27 10:12:31;;;;;;;2.67;0.95;;;17.70;99.90;;;;;;5067692;28;20131;-67
2022/10/27 10:15:09;;;;;;;;;;;17.80;99.90;;;;;;5069847;28;20163;-67
2022/10/27 10:17:36;;;;;;;2.30;0.70;;;17.90;99.90;;;;;;5067043;28;20311;-68
2022/10/27 10:20:04;;;;;;;5.40;1.05;;;18.00;99.90;;;;;;5067542;28;20071;-67
2022/10/27 10:22:33;;;;;;;3.97;0.93;;;18.00;99.90;;;;;;5065346;28;20044;-68
2022/10/27 10:25:15;;;;;;;8.07;1.10;;;18.10;99.90;;;;;;5070978;28;20126;-67
2022/10/27 10:27:47;;;;;;;3.63;1.23;;;18.10;99.90;;;;;;5068258;28;20069;-67
2022/10/27 10:30:19;;;;;;;5.50;1.50;;;18.10;99.90;;;;;;5068389;28;20051;-68
2022/10/27 10:32:50;;;;;;;8.18;1.70;;;18.00;99.90;;;;;;5066971;28;20037;-68
2022/10/27 10:35:46;;;;;;;6.15;1.33;;;18.00;99.90;;;;;;5063466;28;20039;-68
2022/10/27 10:38:27;;;;;;;6.53;1.58;;;18.10;99.90;;;;;;5063870;28;20499;-67
2022/10/27 10:41:00;;;;;;;7.10;1.60;;;18.20;99.90;;;;;;5064637;28;20047;-68
2022/10/27 10:43:26;;;;;;;8.40;1.83;;;18.10;99.90;;;;;;5064802;28;20070;-68
2022/10/27 10:45:52;;;;;;;;;;;18.20;99.90;;;;;;5065860;28;20057;-67
2022/10/27 10:48:24;;;;;;;12.65;1.90;;;18.30;99.90;;;;;;5064417;28;19955;-67
2022/10/27 10:50:49;;;;;;;7.90;1.23;;;18.40;99.90;;;;;;5062405;28;20036;-67
2022/10/27 10:53:23;;;;;;;;;;;18.40;99.90;;;;;;5062270;28;20043;-67
2022/10/27 10:55:49;;;;;;;13.88;1.85;;;18.50;99.90;;;;;;5064925;28;19919;-67
2022/10/27 10:58:17;;;;;;;6.85;1.60;;;18.50;99.90;;;;;;5063115;28;20047;-69
2022/10/27 11:01:01;;;;;;;10.32;1.70;;;18.50;99.90;;;;;;5063941;28;20028;-68
2022/10/27 11:03:32;;;;;;;8.73;2.15;;;18.40;99.90;;;;;;5063667;28;20080;-67
2022/10/27 11:06:00;;;;;;;8.38;1.20;;;18.30;99.90;;;;;;5064535;28;20040;-67
2022/10/27 11:08:55;;;;;;;11.35;1.75;;;18.30;99.90;;;;;;5064179;28;20044;-67
2022/10/27 11:11:25;;;;;;;4.82;1.40;;;18.30;99.90;;;;;;5060160;28;20098;-67
2022/10/27 11:13:55;;;;;;;4.13;1.25;;;18.40;99.90;;;;;;5064324;28;20063;-66
2022/10/27 11:16:21;;;;;;;7.00;1.50;;;18.40;99.90;;;;;;5064258;28;20135;-67
2022/10/27 11:19:00;;;;;;;;;;;18.40;99.90;;;;;;5063611;28;20444;-67
2022/10/27 11:21:52;;;;;;;10.73;1.92;;;18.30;99.90;;;;;;5058546;28;19916;-66
2022/10/27 11:24:30;;;;;;;10.60;2.33;;;18.30;99.90;;;;;;5064100;28;20043;-68
2022/10/27 11:27:03;;;;;;;6.88;2.20;;;18.30;99.90;;;;;;5062903;28;20037;-66
2022/10/27 11:29:37;;;;;;;7.55;1.70;;;18.40;99.90;;;;;;5063436;28;20040;-66
2022/10/27 11:32:19;;;;;;;7.30;2.20;;;18.40;99.90;;;;;;5054368;28;20143;-65
2022/10/27 11:35:10;;;;;;;8.65;1.80;;;18.50;99.90;;;;;;5061173;28;20052;-66
2022/10/27 11:37:54;;;;;;;5.78;1.58;;;18.50;99.90;;;;;;5064194;28;20067;-67
2022/10/27 11:40:51;;;;;;;7.35;2.03;;;18.50;99.90;;;;;;5065929;28;20036;-67
2022/10/27 11:43:27;;;;;;;5.50;1.30;;;18.60;99.90;;;;;;5057387;28;20072;-67
2022/10/27 11:46:01;;;;;;;12.35;2.25;;;18.70;99.90;;;;;;5065295;28;20040;-66
2022/10/27 11:48:48;;;;;;;5.43;1.90;;;18.60;99.90;;;;;;5064051;28;20543;-67
2022/10/27 11:51:16;;;;;;;;;;;18.60;99.90;;;;;;5064765;28;20039;-67
2022/10/27 11:53:42;;;;;;;7.85;2.00;;;18.50;99.90;;;;;;5063229;28;19917;-68
2022/10/27 11:56:10;;;;;;;;;;;18.40;99.90;;;;;;5064470;28;20037;-67
2022/10/27 11:59:08;;;;;;;6.30;2.00;;;18.30;99.90;;;;;;5063807;28;19912;-67
2022/10/27 12:01:41;;;;;;;6.00;1.55;;;18.30;99.90;;;;;;5059076;28;20190;-68
2022/10/27 12:04:23;;;;;;;7.55;1.80;;;18.20;99.90;;;;;;5064608;28;20117;-67
2022/10/27 12:07:01;;;;;;;7.90;2.15;;;18.20;99.90;;;;;;5061903;28;20041;-68
2022/10/27 12:09:47;;;;;;;4.72;1.70;;;18.30;99.90;;;;;;5064484;28;20048;-68
2022/10/27 12:12:21;;;;;;;7.00;1.92;;;18.30;99.90;;;;;;5053789;28;20040;-68
2022/10/27 12:14:52;;;;;;;9.23;1.88;;;18.40;99.90;;;;;;5064431;28;20047;-68
2022/10/27 12:17:30;;;;;;;6.13;1.85;;;18.30;99.90;;;;;;5067653;28;20127;-68
2022/10/27 12:19:58;;;;;;;11.07;2.05;;;18.20;99.90;;;;;;5063806;28;20037;-67
2022/10/27 12:22:50;;;;;;;9.48;1.95;;;18.10;99.90;;;;;;5058500;28;20568;-67
2022/10/27 12:25:24;;;;;;;6.90;1.83;;;18.20;99.90;;;;;;5064827;28;20045;-68
2022/10/27 12:27:53;;;;;;;14.85;2.33;;;18.30;99.90;;;;;;5067008;28;20040;-68
2022/10/27 12:30:21;;;;;;;6.82;2.08;;;18.30;99.90;;;;;;5062249;28;20037;-67
2022/10/27 12:33:08;;;;;;;13.35;2.75;;;18.30;99.90;;;;;;5071728;28;20055;-67
2022/10/27 12:35:53;;;;;;;;;;;18.40;99.90;;;;;;5073096;28;20736;-68
2022/10/27 12:38:36;;;;;;;6.88;1.75;;;18.20;99.90;;;;;;5068717;28;19917;-68
2022/10/27 12:41:10;;;;;;;9.30;2.30;;;18.10;99.90;;;;;;5066580;28;20044;-68
2022/10/27 12:43:54;;;;;;;7.60;1.45;;;18.00;99.90;;;;;;5069609;28;20040;-69
2022/10/27 12:46:47;;;;;;;5.82;1.77;;;18.10;99.90;;;;;;5065883;28;20033;-69
2022/10/27 12:49:20;;;;;;;6.97;1.55;;;18.10;99.90;;;;;;5067316;28;20136;-68
2022/10/27 12:52:00;;;;;;;6.30;1.70;;;18.00;99.90;;;;;;5067228;28;20040;-68
2022/10/27 12:55:04;;;;;;;14.30;1.88;;;18.10;99.90;;;;;;5065616;28;20040;-70
2022/10/27 12:58:01;;;;;;;5.22;1.50;;;18.00;99.90;;;;;;5058219;28;20193;-68
2022/10/27 13:00:29;;;;;;;6.28;2.00;;;18.10;99.90;;;;;;5068267;28;20074;-68
2022/10/27 13:03:30;;;;;;;6.78;1.35;;;18.10;99.90;;;;;;5076292;28;20062;-68
2022/10/27 13:06:02;;;;;;;7.65;2.30;;;18.00;99.90;;;;;;4984030;28;20049;-69
2022/10/27 13:08:51;;;;;;;4.10;1.60;;;18.00;99.90;;;;;;5052699;28;20420;-68
2022/10/27 13:11:52;;;;;;;7.05;1.98;;;18.00;99.90;;;;;;5073159;28;20047;-69
2022/10/27 13:14:55;;;;;;;5.97;2.03;;;18.00;99.90;;;;;;5067848;28;20037;-68
2022/10/27 13:17:48;;;;;;;7.50;1.73;;;18.00;99.90;;;;;;5065054;28;20094;-68
2022/10/27 13:20:41;;;;;;;4.60;1.40;;;18.00;99.90;;;;;;5062938;28;20718;-68
2022/10/27 13:23:20;;;;;;;6.82;2.05;;;18.00;99.90;;;;;;5058183;28;20829;-69
2022/10/27 13:25:55;;;;;;;7.43;1.60;;;18.10;99.90;;;;;;5064968;28;20044;-68